Portada
METAR-TAF:

METAR-TAF

Aeroports :

Asunción, Paraguai

latitud: 25-16S, longitud: 057-38W, altitud: 101 m

Observació

L'informe es va fer fa 18 minuts, a les 10:00 UTC
Vent 7 kt del Sud
Temperatura 9°C
Humitat 81%
Pressió 1021 hPa
Visibilitat 10 km o més
sense núvols per sota de 1500 mi sense presència de cumulonimbus.

METAR: SGAS 201000Z 19007KT CAVOK 09/06 Q1021

Hora: 06:18 (10:18 UTC)

Pronòstic

L'informe es va fer fa 5 hores i 28 minuts, a les 04:50 UTC
Pronòstic vàlid del 20 a les 06 UTC al 21 a les 06 UTC
Vent 10 kt del Sud/Sud-Oest
Visibilitat 10 km o més
sense núvols per sota de 1500 mi sense presència de cumulonimbus.

TAF: SGAS 200450Z 2006/2106 21010KT CAVOK TX24/2018Z TN08/2009Z

Observacions i pronòstics meteorològics de més de 4000 aeroports (METAR i TAF).

Les estacions disponibles són els punts grocs i vermells al mapa.

Posi el ratolí al punt desitjat per veure el nom de l'estació.

Feu clic per veure les observacions i els pronòstics meteorològics.

Per canviar el mapa: feu clic els botons verds amb una creu de color negre per apropar; al botó verd amb un guió per allunyar la imatge; o en les fletxes verdes per a mapes adjacents.


METAR-TAF: